Time;durP1;ratioP1;P1;durP2;ratioP2;P2;SDS_P1;SDS_P2;PMS_P1;PMS_P2;Temp;Humidity;BMP_temperature;BMP_pressure;BME280_temperature;BME280_humidity;BME280_pressure;Samples;Min_cycle;Max_cycle;Signal;HPM_P1;HPM_P2
2022/03/27 00:00:20;;;;;;;24.88;17.27;;;9.20;99.90;;;;;;2064862;28;20034;-69
2022/03/27 00:01:20;;;;;;;24.15;16.60;;;9.20;99.90;;;;;;2073046;28;20088;-69
2022/03/27 00:02:21;;;;;;;23.00;15.80;;;9.30;99.90;;;;;;2074057;28;20022;-70
2022/03/27 00:03:22;;;;;;;21.92;14.95;;;9.30;99.90;;;;;;2073782;28;20034;-70
2022/03/27 00:04:22;;;;;;;22.17;15.10;;;9.30;99.90;;;;;;2081488;28;20635;-70
2022/03/27 00:05:23;;;;;;;20.40;14.45;;;9.30;99.90;;;;;;2081483;28;20646;-70
2022/03/27 00:06:23;;;;;;;21.27;14.98;;;9.30;99.90;;;;;;2073851;28;20058;-70
2022/03/27 00:07:24;;;;;;;25.10;17.40;;;9.30;99.90;;;;;;2073573;28;20022;-70
2022/03/27 00:08:24;;;;;;;26.90;17.58;;;9.30;99.90;;;;;;2073901;28;20103;-70
2022/03/27 00:09:25;;;;;;;28.10;18.45;;;9.30;99.90;;;;;;2073195;28;20026;-70
2022/03/27 00:10:26;;;;;;;26.67;17.27;;;9.30;99.90;;;;;;2073127;28;20101;-70
2022/03/27 00:11:29;;;;;;;25.35;17.48;;;9.30;99.90;;;;;;2073277;28;20080;-70
2022/03/27 00:12:31;;;;;;;26.65;17.80;;;9.30;99.90;;;;;;2073198;28;20026;-69
2022/03/27 00:13:31;;;;;;;23.90;16.40;;;9.30;99.90;;;;;;2073240;28;20066;-69
2022/03/27 00:14:32;;;;;;;23.10;15.40;;;9.30;99.90;;;;;;2081283;28;20045;-69
2022/03/27 00:15:32;;;;;;;23.40;15.95;;;9.30;99.90;;;;;;2073969;28;20026;-70
2022/03/27 00:16:34;;;;;;;23.30;16.35;;;9.30;99.90;;;;;;2073963;28;20081;-69
2022/03/27 00:17:35;;;;;;;22.13;15.68;;;9.30;99.90;;;;;;2074023;28;20034;-70
2022/03/27 00:18:37;;;;;;;22.40;15.43;;;9.30;99.90;;;;;;2085315;28;20056;-69
2022/03/27 00:19:37;;;;;;;21.13;15.27;;;9.30;99.90;;;;;;2081119;28;20489;-71
2022/03/27 00:20:38;;;;;;;20.60;14.27;;;9.30;99.90;;;;;;2081763;28;20053;-70
2022/03/27 00:21:41;;;;;;;19.70;14.30;;;9.30;99.90;;;;;;2081752;28;20034;-70
2022/03/27 00:22:41;;;;;;;23.95;14.98;;;9.30;99.90;;;;;;2082278;28;20032;-70
2022/03/27 00:23:43;;;;;;;20.02;14.15;;;9.30;99.90;;;;;;2081836;28;20638;-71
2022/03/27 00:24:44;;;;;;;22.30;15.18;;;9.30;99.90;;;;;;2080906;28;20032;-71
2022/03/27 00:25:45;;;;;;;19.60;14.27;;;9.30;99.90;;;;;;2081644;28;20364;-71
2022/03/27 00:26:49;;;;;;;19.83;14.57;;;9.30;99.90;;;;;;2081869;28;20025;-71
2022/03/27 00:27:49;;;;;;;19.60;14.15;;;9.20;99.90;;;;;;2073818;28;20425;-70
2022/03/27 00:29:16;;;;;;;21.10;14.88;;;9.20;99.90;;;;;;2081697;28;20013;-70
2022/03/27 00:30:32;;;;;;;21.67;15.45;;;9.10;99.90;;;;;;2081028;28;20021;-70
2022/03/27 00:31:37;;;;;;;21.60;15.27;;;9.10;99.90;;;;;;2080931;28;20432;-70
2022/03/27 00:32:38;;;;;;;22.08;15.55;;;9.10;99.90;;;;;;2081770;28;20044;-72
2022/03/27 00:33:43;;;;;;;21.35;15.18;;;9.00;99.90;;;;;;2081109;28;20034;-70
2022/03/27 00:34:44;;;;;;;21.50;15.30;;;9.00;99.90;;;;;;2081258;28;20476;-70
2022/03/27 00:35:45;;;;;;;22.23;15.73;;;8.90;99.90;;;;;;2081778;28;20129;-70
2022/03/27 00:36:45;;;;;;;19.40;14.80;;;8.90;99.90;;;;;;2081643;28;20034;-69
2022/03/27 00:37:46;;;;;;;19.08;13.80;;;8.90;99.90;;;;;;2081748;28;20504;-71
2022/03/27 00:38:47;;;;;;;19.85;14.40;;;8.80;99.90;;;;;;2081823;28;20505;-70
2022/03/27 00:39:47;;;;;;;20.10;14.35;;;8.80;99.90;;;;;;2081014;28;20103;-70
2022/03/27 00:40:51;;;;;;;18.60;13.68;;;8.70;99.90;;;;;;2080476;28;20040;-70
2022/03/27 00:41:52;;;;;;;18.98;13.60;;;8.70;99.90;;;;;;2081539;28;20036;-71
2022/03/27 00:42:53;;;;;;;21.27;14.05;;;8.60;99.90;;;;;;2081593;28;20129;-70
2022/03/27 00:43:53;;;;;;;18.92;13.82;;;8.60;99.90;;;;;;2081318;28;20025;-71
2022/03/27 00:44:54;;;;;;;19.95;14.43;;;8.50;99.90;;;;;;2081346;28;20025;-70
2022/03/27 00:45:55;;;;;;;19.60;14.15;;;8.50;99.90;;;;;;2081135;28;20076;-71
2022/03/27 00:46:57;;;;;;;20.42;14.43;;;8.40;99.90;;;;;;2080923;28;20472;-70
2022/03/27 00:47:57;;;;;;;19.98;14.48;;;8.40;99.90;;;;;;2081649;28;20030;-71
2022/03/27 00:48:58;;;;;;;18.98;14.13;;;8.40;99.90;;;;;;2081700;28;20053;-71
2022/03/27 00:49:58;;;;;;;19.25;13.80;;;8.40;99.90;;;;;;2081538;28;20027;-71
2022/03/27 00:50:59;;;;;;;17.85;13.57;;;8.40;99.90;;;;;;2081419;28;20076;-70
2022/03/27 00:52:02;;;;;;;19.45;14.30;;;8.40;99.90;;;;;;2081442;28;20400;-71
2022/03/27 00:53:03;;;;;;;21.50;14.77;;;8.30;99.90;;;;;;2081719;28;20033;-70
2022/03/27 00:54:05;;;;;;;21.20;15.68;;;8.30;99.90;;;;;;2081496;28;20030;-70
2022/03/27 00:55:06;;;;;;;19.88;14.90;;;8.40;99.90;;;;;;2080827;28;20531;-70
2022/03/27 00:56:06;;;;;;;22.65;15.52;;;8.40;99.90;;;;;;2081004;28;20053;-71
2022/03/27 00:57:08;;;;;;;21.55;15.52;;;8.40;99.90;;;;;;2081690;28;20107;-71
2022/03/27 00:58:08;;;;;;;19.55;14.73;;;8.30;99.90;;;;;;2081038;28;20052;-70
2022/03/27 00:59:09;;;;;;;21.13;15.15;;;8.30;99.90;;;;;;2080818;28;20037;-71
2022/03/27 01:00:19;;;;;;;20.90;14.93;;;8.30;99.90;;;;;;2081369;28;20100;-70
2022/03/27 01:01:42;;;;;;;19.02;14.25;;;8.30;99.90;;;;;;2081018;28;20428;-70
2022/03/27 01:02:43;;;;;;;20.35;14.40;;;8.30;99.90;;;;;;2081562;28;20033;-70
2022/03/27 01:03:47;;;;;;;19.20;14.48;;;8.20;99.90;;;;;;2081474;28;20392;-70
2022/03/27 01:04:48;;;;;;;18.80;14.40;;;8.20;99.90;;;;;;2081542;28;20171;-70
2022/03/27 01:05:49;;;;;;;20.40;15.00;;;8.10;99.90;;;;;;2081513;28;20033;-71
2022/03/27 01:06:50;;;;;;;19.67;14.15;;;8.10;99.90;;;;;;2081732;28;20025;-71
2022/03/27 01:07:50;;;;;;;19.88;14.95;;;8.10;99.90;;;;;;2081239;28;20090;-70
2022/03/27 01:10:10;;;;;;;21.85;14.98;;;8.00;99.90;;;;;;2080916;28;20041;-70
2022/03/27 01:11:18;;;;;;;21.13;14.80;;;8.00;99.90;;;;;;2080510;28;20033;-70
2022/03/27 01:12:21;;;;;;;21.30;14.55;;;8.00;99.90;;;;;;2081055;28;20061;-71
2022/03/27 01:13:22;;;;;;;20.15;14.52;;;8.00;99.90;;;;;;2081504;28;20041;-70
2022/03/27 01:14:31;;;;;;;21.30;15.18;;;7.90;99.90;;;;;;2080664;28;20087;-71
2022/03/27 01:15:38;;;;;;;21.48;15.27;;;7.90;99.90;;;;;;2080956;28;20068;-71
2022/03/27 01:16:43;;;;;;;20.90;14.63;;;7.90;99.90;;;;;;2081386;28;20029;-71
2022/03/27 01:17:43;;;;;;;21.45;15.02;;;7.90;99.90;;;;;;2081434;28;20029;-71
2022/03/27 01:18:45;;;;;;;23.52;16.48;;;7.90;99.90;;;;;;2081496;28;20379;-71
2022/03/27 01:19:54;;;;;;;22.02;15.60;;;7.80;99.90;;;;;;2081263;28;20033;-70
2022/03/27 01:20:54;;;;;;;20.23;15.07;;;7.80;99.90;;;;;;2080477;28;20033;-71
2022/03/27 01:21:55;;;;;;;21.30;15.65;;;7.80;99.90;;;;;;2088806;28;20036;-71
2022/03/27 01:22:55;;;;;;;21.52;15.48;;;7.80;99.90;;;;;;2088971;28;20083;-70
2022/03/27 01:23:57;;;;;;;20.80;15.10;;;7.80;99.90;;;;;;2080656;28;20025;-71
2022/03/27 01:24:57;;;;;;;21.10;15.32;;;7.70;99.90;;;;;;2080735;28;20084;-71
2022/03/27 01:25:58;;;;;;;22.65;15.75;;;7.80;99.90;;;;;;2080606;28;20029;-71
2022/03/27 01:26:58;;;;;;;21.33;15.15;;;7.80;99.90;;;;;;2081466;28;20517;-70
2022/03/27 01:27:59;;;;;;;21.60;15.05;;;7.70;99.90;;;;;;2081410;28;20032;-70
2022/03/27 01:29:00;;;;;;;19.05;14.85;;;7.80;99.90;;;;;;2081387;28;20017;-71
2022/03/27 01:30:01;;;;;;;21.30;15.18;;;7.80;99.90;;;;;;2081169;28;20420;-71
2022/03/27 01:31:04;;;;;;;20.27;14.50;;;7.80;99.90;;;;;;2080202;28;20037;-70
2022/03/27 01:32:07;;;;;;;20.20;14.27;;;7.80;99.90;;;;;;2080683;28;20569;-70
2022/03/27 01:33:11;;;;;;;21.65;14.52;;;7.80;99.90;;;;;;2081217;28;20481;-70
2022/03/27 01:34:11;;;;;;;20.77;13.90;;;7.80;99.90;;;;;;2080747;28;20044;-70
2022/03/27 01:35:12;;;;;;;20.92;14.20;;;7.80;99.90;;;;;;2080608;28;20048;-70
2022/03/27 01:36:22;;;;;;;20.33;13.75;;;7.80;99.90;;;;;;2081232;28;20061;-70
2022/03/27 01:37:22;;;;;;;21.35;14.10;;;7.80;99.90;;;;;;2081179;28;20167;-70
2022/03/27 01:38:23;;;;;;;19.75;13.57;;;7.80;99.90;;;;;;2080670;28;20121;-70
2022/03/27 01:39:24;;;;;;;22.00;14.10;;;7.80;99.90;;;;;;2080511;28;20071;-70
2022/03/27 01:40:24;;;;;;;21.92;14.93;;;7.80;99.90;;;;;;2080352;28;20040;-69
2022/03/27 01:41:25;;;;;;;19.35;13.30;;;7.80;99.90;;;;;;2079956;28;20053;-70
2022/03/27 01:42:26;;;;;;;19.63;13.80;;;7.80;99.90;;;;;;2080486;28;20033;-70
2022/03/27 01:43:26;;;;;;;20.38;14.02;;;7.80;99.90;;;;;;2081211;28;20026;-69
2022/03/27 01:44:27;;;;;;;20.30;13.88;;;7.80;99.90;;;;;;2080375;28;20128;-69
2022/03/27 01:45:28;;;;;;;21.02;14.00;;;7.80;99.90;;;;;;2080447;28;20037;-69
2022/03/27 01:46:33;;;;;;;18.85;13.05;;;7.80;99.90;;;;;;2080383;28;20105;-69
2022/03/27 01:47:33;;;;;;;23.10;14.25;;;7.80;99.90;;;;;;2080597;28;20022;-69
2022/03/27 01:48:34;;;;;;;27.23;14.63;;;7.80;99.90;;;;;;2081096;28;20396;-69
2022/03/27 01:49:35;;;;;;;29.75;16.40;;;7.80;99.90;;;;;;2081221;28;20032;-69
2022/03/27 01:50:36;;;;;;;31.95;16.35;;;7.80;99.90;;;;;;2080863;28;20036;-69
2022/03/27 01:51:38;;;;;;;33.25;16.50;;;7.80;99.90;;;;;;2079868;28;20099;-70
2022/03/27 01:52:39;;;;;;;32.20;16.13;;;7.80;99.90;;;;;;2080517;28;20034;-69
2022/03/27 01:53:40;;;;;;;30.00;15.98;;;7.80;99.90;;;;;;2081038;28;20057;-69
2022/03/27 01:54:41;;;;;;;31.63;16.52;;;7.80;99.90;;;;;;2081027;28;20060;-69
2022/03/27 01:55:42;;;;;;;27.38;15.82;;;7.80;99.90;;;;;;2080516;28;20049;-69
2022/03/27 01:56:42;;;;;;;24.65;14.68;;;7.80;99.90;;;;;;2079675;28;20099;-70
2022/03/27 01:57:44;;;;;;;31.17;16.75;;;7.80;99.90;;;;;;2080965;28;20061;-69
2022/03/27 01:58:44;;;;;;;27.63;15.77;;;7.90;99.90;;;;;;2080441;28;20072;-69
2022/03/27 01:59:45;;;;;;;25.27;14.82;;;7.90;99.90;;;;;;2072461;28;20061;-70
2022/03/27 02:00:46;;;;;;;22.73;14.75;;;7.90;99.90;;;;;;2072302;28;20054;-71
2022/03/27 02:01:47;;;;;;;24.77;14.60;;;8.00;99.90;;;;;;2081326;28;20067;-70
2022/03/27 02:02:48;;;;;;;28.58;16.75;;;8.00;99.90;;;;;;2081172;28;20029;-71
2022/03/27 02:03:49;;;;;;;29.92;17.33;;;8.00;99.90;;;;;;2081250;28;20036;-71
2022/03/27 02:04:51;;;;;;;28.05;17.02;;;8.00;99.90;;;;;;2073149;28;20029;-71
2022/03/27 02:05:52;;;;;;;27.55;16.60;;;8.00;99.90;;;;;;2080994;28;20029;-71
2022/03/27 02:06:53;;;;;;;27.08;16.40;;;8.00;99.90;;;;;;2081346;28;20032;-71
2022/03/27 02:07:53;;;;;;;24.20;15.40;;;8.00;99.90;;;;;;2081458;28;20049;-70
2022/03/27 02:08:54;;;;;;;25.73;15.65;;;8.00;99.90;;;;;;2082482;28;20071;-70
2022/03/27 02:09:55;;;;;;;23.02;15.02;;;8.00;99.90;;;;;;2081926;28;20025;-70
2022/03/27 02:10:55;;;;;;;27.08;16.00;;;8.00;99.90;;;;;;2081833;28;20106;-71
2022/03/27 02:11:56;;;;;;;26.00;16.33;;;8.00;99.90;;;;;;2082110;28;20104;-70
2022/03/27 02:12:56;;;;;;;24.83;15.85;;;8.00;99.90;;;;;;2081843;28;20108;-70
2022/03/27 02:13:57;;;;;;;23.92;15.30;;;8.00;99.90;;;;;;2081211;28;20655;-69
2022/03/27 02:14:57;;;;;;;23.92;15.95;;;8.00;99.90;;;;;;2080452;28;20625;-70
2022/03/27 02:15:58;;;;;;;23.08;15.38;;;7.90;99.90;;;;;;2080974;28;20071;-68
2022/03/27 02:16:59;;;;;;;22.15;14.73;;;7.90;99.90;;;;;;2080956;28;20056;-70
2022/03/27 02:18:01;;;;;;;24.42;16.00;;;7.80;99.90;;;;;;2081077;28;20025;-70
2022/03/27 02:19:06;;;;;;;24.02;15.85;;;7.80;99.90;;;;;;2080913;28;20049;-70
2022/03/27 02:20:08;;;;;;;23.65;15.07;;;7.80;99.90;;;;;;2080903;28;20040;-70
2022/03/27 02:21:09;;;;;;;23.52;15.10;;;7.70;99.90;;;;;;2080418;28;20485;-70
2022/03/27 02:22:10;;;;;;;23.52;15.68;;;7.70;99.90;;;;;;2080648;28;20040;-70
2022/03/27 02:23:11;;;;;;;22.48;14.65;;;7.70;99.90;;;;;;2080205;28;20041;-70
2022/03/27 02:24:12;;;;;;;21.17;14.55;;;7.60;99.90;;;;;;2080208;28;20029;-70
2022/03/27 02:25:13;;;;;;;21.23;14.13;;;7.60;99.90;;;;;;2080622;28;20076;-70
2022/03/27 02:26:13;;;;;;;21.45;14.70;;;7.60;99.90;;;;;;2080976;28;20037;-71
2022/03/27 02:27:14;;;;;;;21.25;14.57;;;7.50;99.90;;;;;;2080926;28;20029;-70
2022/03/27 02:28:15;;;;;;;21.92;14.90;;;7.50;99.90;;;;;;2080936;28;20029;-71
2022/03/27 02:29:16;;;;;;;19.40;13.93;;;7.50;99.90;;;;;;2080944;28;20112;-70
2022/03/27 02:30:19;;;;;;;21.60;14.07;;;7.50;99.90;;;;;;2071660;28;20026;-70
2022/03/27 02:31:20;;;;;;;19.55;13.80;;;7.40;99.90;;;;;;2071935;28;20042;-70
2022/03/27 02:32:21;;;;;;;20.23;13.73;;;7.40;99.90;;;;;;2081272;28;20052;-70
2022/03/27 02:33:21;;;;;;;21.25;14.30;;;7.30;99.90;;;;;;2080943;28;20028;-70
2022/03/27 02:34:22;;;;;;;23.50;15.63;;;7.30;99.90;;;;;;2072271;28;20049;-70
2022/03/27 02:35:23;;;;;;;25.15;15.80;;;7.20;99.90;;;;;;2072254;28;20493;-70
2022/03/27 02:36:24;;;;;;;24.90;15.95;;;7.20;99.90;;;;;;2080367;28;20051;-70
2022/03/27 02:37:24;;;;;;;23.58;15.73;;;7.20;99.90;;;;;;2072259;28;20038;-70
2022/03/27 02:38:25;;;;;;;24.67;15.18;;;7.10;99.90;;;;;;2080434;28;20488;-69
2022/03/27 02:39:26;;;;;;;21.88;15.55;;;7.20;99.90;;;;;;2088459;28;20041;-70
2022/03/27 02:40:27;;;;;;;22.08;15.15;;;7.10;99.90;;;;;;2080139;28;20029;-70
2022/03/27 02:41:27;;;;;;;20.83;14.80;;;7.10;99.90;;;;;;2079972;28;20148;-70
2022/03/27 02:42:28;;;;;;;21.90;14.73;;;7.10;99.90;;;;;;2080968;28;20076;-70
2022/03/27 02:43:29;;;;;;;21.42;15.13;;;7.10;99.90;;;;;;2080912;28;20068;-70
2022/03/27 02:44:30;;;;;;;23.80;15.32;;;7.10;99.90;;;;;;2081272;28;20029;-70
2022/03/27 02:45:32;;;;;;;22.35;15.30;;;7.00;99.90;;;;;;2081504;28;20030;-70
2022/03/27 02:46:32;;;;;;;23.05;15.60;;;7.00;99.90;;;;;;2080946;28;20025;-70
2022/03/27 02:47:33;;;;;;;22.13;15.23;;;7.00;99.90;;;;;;2081176;28;20029;-70
2022/03/27 02:48:34;;;;;;;22.95;15.15;;;6.90;99.90;;;;;;2080856;28;20021;-70
2022/03/27 02:49:35;;;;;;;22.45;15.13;;;6.90;99.90;;;;;;2080902;28;20026;-70
2022/03/27 02:50:38;;;;;;;21.42;15.00;;;6.90;99.90;;;;;;2080731;28;20060;-70
2022/03/27 02:51:41;;;;;;;20.55;14.88;;;6.90;99.90;;;;;;2080369;28;20475;-70
2022/03/27 02:52:42;;;;;;;23.90;15.60;;;6.90;99.90;;;;;;2080260;28;20039;-70
2022/03/27 02:53:42;;;;;;;21.30;14.57;;;6.90;99.90;;;;;;2080157;28;20037;-69
2022/03/27 02:54:44;;;;;;;20.95;14.48;;;6.80;99.90;;;;;;2080103;28;20795;-70
2022/03/27 02:55:45;;;;;;;23.63;15.25;;;6.80;99.90;;;;;;2080325;28;20354;-71
2022/03/27 02:56:46;;;;;;;24.85;15.35;;;6.80;99.90;;;;;;2080830;28;20040;-71
2022/03/27 02:57:47;;;;;;;20.80;14.35;;;6.80;99.90;;;;;;2080883;28;20424;-69
2022/03/27 02:58:48;;;;;;;21.80;15.23;;;6.80;99.90;;;;;;2080765;28;20057;-70
2022/03/27 02:59:52;;;;;;;20.60;14.27;;;6.80;99.90;;;;;;2080136;28;20030;-70
2022/03/27 03:00:53;;;;;;;20.83;14.50;;;6.80;99.90;;;;;;2079551;28;20037;-69
2022/03/27 03:01:53;;;;;;;21.25;14.60;;;6.80;99.90;;;;;;2080779;28;20096;-69
2022/03/27 03:02:54;;;;;;;20.40;14.07;;;6.70;99.90;;;;;;2080592;28;20114;-69
2022/03/27 03:03:55;;;;;;;21.52;14.88;;;6.70;99.90;;;;;;2080465;28;20076;-70
2022/03/27 03:04:56;;;;;;;20.83;14.15;;;6.70;99.90;;;;;;2080554;28;20038;-69
2022/03/27 03:05:58;;;;;;;21.73;14.57;;;6.70;99.90;;;;;;2080557;28;20372;-70
2022/03/27 03:06:59;;;;;;;20.02;14.18;;;6.60;99.90;;;;;;2080062;28;20030;-70
2022/03/27 03:08:02;;;;;;;19.48;14.00;;;6.70;99.90;;;;;;2080085;28;20026;-70
2022/03/27 03:09:02;;;;;;;21.08;14.35;;;6.70;99.90;;;;;;2080676;28;20032;-70
2022/03/27 03:10:03;;;;;;;21.17;14.27;;;6.60;99.90;;;;;;2080412;28;20040;-70
2022/03/27 03:11:04;;;;;;;21.05;14.50;;;6.60;99.90;;;;;;2080182;28;20053;-70
2022/03/27 03:12:06;;;;;;;19.58;13.85;;;6.60;99.90;;;;;;2080602;28;20479;-69
2022/03/27 03:13:08;;;;;;;21.10;14.68;;;6.60;99.90;;;;;;2080461;28;20034;-70
2022/03/27 03:14:09;;;;;;;21.58;15.02;;;6.60;99.90;;;;;;2080370;28;20036;-70
2022/03/27 03:15:10;;;;;;;21.55;14.38;;;6.60;99.90;;;;;;2080631;28;20044;-70
2022/03/27 03:16:13;;;;;;;21.10;14.75;;;6.60;99.90;;;;;;2080881;28;20048;-70
2022/03/27 03:17:14;;;;;;;24.45;15.63;;;6.60;99.90;;;;;;2080702;28;20033;-71
2022/03/27 03:18:14;;;;;;;22.42;14.57;;;6.60;99.90;;;;;;2080412;28;20550;-71
2022/03/27 03:19:16;;;;;;;20.48;14.00;;;6.60;99.90;;;;;;2080401;28;20039;-72
2022/03/27 03:20:19;;;;;;;21.35;14.85;;;6.60;99.90;;;;;;2080664;28;20025;-70
2022/03/27 03:21:21;;;;;;;21.70;14.15;;;6.60;99.90;;;;;;2080512;28;20065;-69
2022/03/27 03:22:22;;;;;;;21.67;14.23;;;6.60;99.90;;;;;;2080745;28;20160;-69
2022/03/27 03:23:22;;;;;;;22.50;14.23;;;6.60;99.90;;;;;;2081178;28;20088;-69
2022/03/27 03:24:27;;;;;;;20.40;14.45;;;6.50;99.90;;;;;;2081013;28;20397;-68
2022/03/27 03:25:29;;;;;;;21.55;14.52;;;6.50;99.90;;;;;;2080803;28;20029;-69
2022/03/27 03:26:30;;;;;;;20.63;14.00;;;6.40;99.90;;;;;;2080482;28;20024;-69
2022/03/27 03:27:30;;;;;;;22.42;14.88;;;6.40;99.90;;;;;;2079976;28;20671;-70
2022/03/27 03:28:31;;;;;;;22.25;14.68;;;6.40;99.90;;;;;;2080160;28;20037;-68
2022/03/27 03:29:33;;;;;;;22.70;14.73;;;6.40;99.90;;;;;;2081034;28;20029;-69
2022/03/27 03:30:34;;;;;;;22.55;15.18;;;6.40;99.90;;;;;;2082055;28;20037;-69
2022/03/27 03:31:34;;;;;;;22.35;15.13;;;6.30;99.90;;;;;;2080050;28;20032;-69
2022/03/27 03:32:36;;;;;;;20.77;14.43;;;6.40;99.90;;;;;;2080570;28;20033;-69
2022/03/27 03:33:37;;;;;;;21.55;15.00;;;6.30;99.90;;;;;;2079887;28;20033;-68
2022/03/27 03:34:37;;;;;;;20.35;14.90;;;6.40;99.90;;;;;;2079686;28;20033;-69
2022/03/27 03:35:39;;;;;;;22.67;15.63;;;6.30;99.90;;;;;;2079863;28;20451;-68
2022/03/27 03:36:41;;;;;;;25.67;15.57;;;6.30;99.90;;;;;;2079811;28;20042;-68
2022/03/27 03:37:41;;;;;;;22.52;15.52;;;6.30;99.90;;;;;;2079899;28;20088;-68
2022/03/27 03:38:43;;;;;;;22.48;15.30;;;6.30;99.90;;;;;;2080712;28;20447;-68
2022/03/27 03:39:44;;;;;;;23.85;15.70;;;6.30;99.90;;;;;;2080368;28;20558;-68
2022/03/27 03:40:45;;;;;;;22.70;15.00;;;6.30;99.90;;;;;;2080544;28;20025;-68
2022/03/27 03:41:45;;;;;;;21.08;14.77;;;6.20;99.90;;;;;;2080389;28;20160;-69
2022/03/27 03:42:46;;;;;;;23.33;15.80;;;6.30;99.90;;;;;;2088036;28;20566;-70
2022/03/27 03:43:47;;;;;;;22.38;15.73;;;6.20;99.90;;;;;;2088255;28;20025;-70
2022/03/27 03:44:47;;;;;;;24.70;16.50;;;6.20;99.90;;;;;;2080523;28;20523;-70
2022/03/27 03:45:48;;;;;;;23.45;15.73;;;6.20;99.90;;;;;;2080415;28;20034;-71
2022/03/27 03:46:49;;;;;;;22.38;15.00;;;6.20;99.90;;;;;;2080517;28;20061;-69
2022/03/27 03:47:49;;;;;;;22.00;15.32;;;6.20;99.90;;;;;;2080658;28;20022;-70
2022/03/27 03:48:50;;;;;;;22.73;15.63;;;6.20;99.90;;;;;;2082224;28;20043;-70
2022/03/27 03:49:51;;;;;;;22.85;15.68;;;6.10;99.90;;;;;;2083026;28;20048;-70
2022/03/27 03:50:52;;;;;;;23.90;16.02;;;6.10;99.90;;;;;;2081894;28;20071;-70
2022/03/27 03:51:52;;;;;;;21.38;14.85;;;6.10;99.90;;;;;;2082096;28;20499;-70
2022/03/27 03:52:53;;;;;;;23.35;16.17;;;6.10;99.90;;;;;;2080756;28;20052;-70
2022/03/27 03:53:53;;;;;;;23.90;16.10;;;6.10;99.90;;;;;;2080894;28;20056;-70
2022/03/27 03:54:54;;;;;;;22.73;16.15;;;6.10;99.90;;;;;;2081016;28;20575;-70
2022/03/27 03:55:55;;;;;;;25.08;15.85;;;6.10;99.90;;;;;;2081470;28;20036;-71
2022/03/27 03:56:55;;;;;;;24.85;16.13;;;6.00;99.90;;;;;;2081383;28;20473;-70
2022/03/27 03:57:59;;;;;;;22.73;16.40;;;6.00;99.90;;;;;;2081598;28;20032;-70
2022/03/27 03:59:00;;;;;;;26.63;17.55;;;6.00;99.90;;;;;;2081223;28;20513;-70
2022/03/27 04:00:00;;;;;;;26.17;17.23;;;6.00;99.90;;;;;;2088672;28;20021;-71
2022/03/27 04:01:03;;;;;;;27.08;18.83;;;6.00;99.90;;;;;;2088450;28;20065;-71
2022/03/27 04:02:05;;;;;;;26.38;18.60;;;6.00;99.90;;;;;;2080811;28;20046;-70
2022/03/27 04:03:07;;;;;;;27.95;18.92;;;6.00;99.90;;;;;;2072866;28;20041;-70
2022/03/27 04:04:07;;;;;;;27.42;18.63;;;6.00;99.90;;;;;;2080841;28;20048;-70
2022/03/27 04:05:08;;;;;;;27.15;18.25;;;6.00;99.90;;;;;;2081359;28;20392;-70
2022/03/27 04:06:09;;;;;;;26.20;17.95;;;6.00;99.90;;;;;;2080752;28;20030;-70
2022/03/27 04:07:09;;;;;;;28.63;18.80;;;6.00;99.90;;;;;;2080893;28;20061;-70
2022/03/27 04:08:10;;;;;;;24.92;17.13;;;6.00;99.90;;;;;;2081388;28;20022;-70
2022/03/27 04:09:11;;;;;;;25.77;17.73;;;6.00;99.90;;;;;;2081574;28;20029;-71
2022/03/27 04:10:11;;;;;;;28.02;17.88;;;6.00;99.90;;;;;;2081153;28;20037;-70
2022/03/27 04:11:16;;;;;;;26.17;17.52;;;5.90;99.90;;;;;;2080482;28;20030;-70
2022/03/27 04:12:16;;;;;;;25.83;17.25;;;5.90;99.90;;;;;;2081359;28;20025;-70
2022/03/27 04:13:18;;;;;;;23.88;16.80;;;5.90;99.90;;;;;;2081291;28;20033;-70
2022/03/27 04:14:18;;;;;;;24.77;17.02;;;5.90;99.90;;;;;;2081897;28;20033;-70
2022/03/27 04:15:19;;;;;;;24.38;16.77;;;5.90;99.90;;;;;;2080799;28;20036;-70
2022/03/27 04:16:20;;;;;;;23.75;16.83;;;5.80;99.90;;;;;;2079976;28;20432;-70
2022/03/27 04:17:20;;;;;;;25.13;16.58;;;5.80;99.90;;;;;;2072258;28;20113;-70
2022/03/27 04:18:21;;;;;;;24.63;16.77;;;5.80;99.90;;;;;;2080452;28;20041;-71
2022/03/27 04:19:22;;;;;;;23.52;16.58;;;5.70;99.90;;;;;;2080506;28;20120;-70
2022/03/27 04:20:23;;;;;;;23.67;16.55;;;5.70;99.90;;;;;;2080738;28;20095;-70
2022/03/27 04:21:24;;;;;;;25.95;16.52;;;5.70;99.90;;;;;;2082044;28;20112;-69
2022/03/27 04:22:25;;;;;;;22.80;15.90;;;5.70;99.90;;;;;;2081557;28;20033;-70
2022/03/27 04:23:25;;;;;;;23.58;16.33;;;5.70;99.90;;;;;;2074074;28;20030;-70
2022/03/27 04:24:26;;;;;;;23.73;15.95;;;5.70;99.90;;;;;;2081954;28;20029;-70
2022/03/27 04:25:27;;;;;;;23.75;15.93;;;5.70;99.90;;;;;;2082678;28;20108;-70
2022/03/27 04:26:27;;;;;;;23.00;16.63;;;5.70;99.90;;;;;;2082500;28;20021;-70
2022/03/27 04:27:28;;;;;;;24.65;16.98;;;5.70;99.90;;;;;;2081753;28;20079;-70
2022/03/27 04:28:29;;;;;;;24.10;16.58;;;5.70;99.90;;;;;;2081900;28;20033;-70
2022/03/27 04:29:30;;;;;;;25.33;16.33;;;5.70;99.90;;;;;;2082470;28;20104;-70
2022/03/27 04:30:31;;;;;;;23.73;16.33;;;5.70;99.90;;;;;;2082574;28;20044;-70
2022/03/27 04:31:31;;;;;;;24.35;16.60;;;5.70;99.90;;;;;;2081808;28;20177;-71
2022/03/27 04:32:32;;;;;;;24.35;16.42;;;5.60;99.90;;;;;;2090018;28;20032;-70
2022/03/27 04:33:33;;;;;;;23.45;15.82;;;5.60;99.90;;;;;;2090028;28;20120;-71
2022/03/27 04:34:34;;;;;;;23.65;16.20;;;5.60;99.90;;;;;;2082538;28;20129;-70
2022/03/27 04:35:35;;;;;;;23.35;16.17;;;5.60;99.90;;;;;;2083516;28;20495;-70
2022/03/27 04:36:35;;;;;;;23.48;16.10;;;5.60;99.90;;;;;;2082736;28;20056;-70
2022/03/27 04:37:43;;;;;;;24.73;16.75;;;5.60;99.90;;;;;;2082732;28;20064;-71
2022/03/27 04:38:44;;;;;;;26.05;17.10;;;5.60;99.90;;;;;;2090917;28;20031;-74
2022/03/27 04:39:45;;;;;;;23.58;16.92;;;5.60;99.90;;;;;;2082902;28;20021;-71
2022/03/27 04:40:46;;;;;;;25.08;17.42;;;5.50;99.90;;;;;;2082367;28;20910;-71
2022/03/27 04:41:46;;;;;;;25.17;16.75;;;5.50;99.90;;;;;;2082835;28;20022;-71
2022/03/27 04:42:47;;;;;;;24.13;16.80;;;5.50;99.90;;;;;;2082453;28;20135;-71
2022/03/27 04:43:48;;;;;;;25.58;17.08;;;5.50;99.90;;;;;;2081583;28;20065;-70
2022/03/27 04:44:48;;;;;;;26.38;17.92;;;5.60;99.90;;;;;;2073366;28;20036;-71
2022/03/27 04:45:49;;;;;;;26.52;17.75;;;5.60;99.90;;;;;;2081574;28;20033;-69
2022/03/27 04:46:50;;;;;;;26.05;17.63;;;5.60;99.90;;;;;;2081827;28;20017;-68
2022/03/27 04:47:51;;;;;;;26.02;17.92;;;5.60;99.90;;;;;;2081123;28;20029;-68
2022/03/27 04:48:51;;;;;;;25.75;17.13;;;5.60;99.90;;;;;;2081818;28;20033;-72
2022/03/27 04:49:52;;;;;;;27.88;17.60;;;5.60;99.90;;;;;;2081702;28;20597;-69
2022/03/27 04:50:53;;;;;;;26.88;18.02;;;5.60;99.90;;;;;;2081001;28;20033;-69
2022/03/27 04:51:54;;;;;;;25.83;17.90;;;5.60;99.90;;;;;;2081428;28;20037;-69
2022/03/27 04:52:54;;;;;;;27.60;18.25;;;5.50;99.90;;;;;;2081031;28;20151;-69
2022/03/27 04:53:55;;;;;;;27.92;18.88;;;5.50;99.90;;;;;;2080990;28;20508;-69
2022/03/27 04:54:55;;;;;;;25.17;17.67;;;5.50;99.90;;;;;;2080724;28;20025;-68
2022/03/27 04:55:56;;;;;;;27.98;18.60;;;5.50;99.90;;;;;;2072706;28;20026;-69
2022/03/27 04:56:57;;;;;;;25.45;18.50;;;5.50;99.90;;;;;;2080930;28;20770;-70
2022/03/27 04:57:57;;;;;;;26.70;18.45;;;5.50;99.90;;;;;;2081484;28;20530;-69
2022/03/27 04:58:58;;;;;;;25.75;18.65;;;5.50;99.90;;;;;;2081686;28;20037;-69
2022/03/27 04:59:59;;;;;;;25.67;17.83;;;5.50;99.90;;;;;;2080940;28;20029;-69
2022/03/27 05:00:59;;;;;;;27.20;18.85;;;5.50;99.90;;;;;;2081113;28;20029;-69
2022/03/27 05:02:00;;;;;;;28.50;18.70;;;5.50;99.90;;;;;;2081572;28;20037;-69
2022/03/27 05:03:01;;;;;;;29.33;19.73;;;5.40;99.90;;;;;;2080896;28;20074;-69
2022/03/27 05:04:02;;;;;;;28.23;18.48;;;5.40;99.90;;;;;;2080945;28;20080;-69
2022/03/27 05:05:05;;;;;;;27.50;19.10;;;5.50;99.90;;;;;;2081603;28;20098;-69
2022/03/27 05:06:05;;;;;;;27.67;18.35;;;5.50;99.90;;;;;;2081525;28;20531;-69
2022/03/27 05:07:06;;;;;;;26.52;18.23;;;5.40;99.90;;;;;;2081546;28;20083;-68
2022/03/27 05:08:08;;;;;;;28.17;17.98;;;5.40;99.90;;;;;;2080564;28;20029;-69
2022/03/27 05:09:09;;;;;;;26.05;17.60;;;5.40;99.90;;;;;;2072813;28;20706;-69
2022/03/27 05:10:11;;;;;;;28.40;17.70;;;5.40;99.90;;;;;;2072514;28;20030;-69
2022/03/27 05:11:12;;;;;;;25.52;17.20;;;5.40;99.90;;;;;;2080284;28;20036;-69
2022/03/27 05:12:13;;;;;;;26.15;17.23;;;5.40;99.90;;;;;;2081497;28;20037;-69
2022/03/27 05:13:14;;;;;;;26.52;16.92;;;5.40;99.90;;;;;;2081424;28;20471;-69
2022/03/27 05:14:15;;;;;;;24.08;16.60;;;5.40;99.90;;;;;;2081274;28;20087;-69
2022/03/27 05:15:15;;;;;;;23.75;15.85;;;5.40;99.90;;;;;;2081557;28;20029;-69
2022/03/27 05:16:16;;;;;;;24.73;16.60;;;5.40;99.90;;;;;;2081290;28;20668;-69